createdAt,value
2018-04-02T00:01:05.309Z,78.93
2018-04-02T00:03:33.079Z,64.17
2018-04-02T00:06:01.572Z,66.53
2018-04-02T00:08:30.229Z,60.47
2018-04-02T00:10:58.935Z,66.03
2018-04-02T00:13:29.648Z,68.20
2018-04-02T00:15:58.187Z,70.83
2018-04-02T00:18:28.079Z,69.63
2018-04-02T00:20:58.668Z,73.60
2018-04-02T00:23:27.092Z,70.37
2018-04-02T00:25:56.357Z,68.07
2018-04-02T00:28:25.049Z,71.30
2018-04-02T00:30:53.306Z,80.07
2018-04-02T00:33:21.039Z,70.73
2018-04-02T00:35:49.664Z,77.80
2018-04-02T00:38:17.532Z,74.20
2018-04-02T00:40:46.444Z,77.23
2018-04-02T00:43:14.712Z,76.93
2018-04-02T00:45:43.740Z,72.87
2018-04-02T00:48:11.744Z,76.93
2018-04-02T00:50:41.259Z,66.50
2018-04-02T00:53:11.515Z,74.03
2018-04-02T00:55:40.191Z,69.17
2018-04-02T00:58:09.703Z,71.37
2018-04-02T01:00:37.913Z,76.57
2018-04-02T01:03:07.200Z,78.27
2018-04-02T01:05:35.657Z,76.43
2018-04-02T01:08:03.396Z,74.63
2018-04-02T01:10:32.164Z,71.40
2018-04-02T01:12:59.849Z,77.47
2018-04-02T01:15:27.633Z,76.13
2018-04-02T01:17:55.377Z,80.47
2018-04-02T01:20:23.248Z,77.50
2018-04-02T01:22:51.128Z,73.87
2018-04-02T01:25:20.150Z,77.00
2018-04-02T01:27:47.957Z,78.07
2018-04-02T01:30:16.006Z,77.47
2018-04-02T01:32:44.450Z,72.43
2018-04-02T01:35:12.314Z,76.47
2018-04-02T01:37:41.529Z,75.80
2018-04-02T01:40:11.629Z,75.07
2018-04-02T01:42:40.344Z,81.27
2018-04-02T01:45:45.056Z,76.77
2018-04-02T01:48:14.119Z,80.70
2018-04-02T01:50:42.822Z,78.20
2018-04-02T01:53:10.633Z,78.47
2018-04-02T01:55:38.748Z,71.53
2018-04-02T01:58:07.300Z,77.87
2018-04-02T02:00:37.013Z,86.07
2018-04-02T02:03:07.240Z,86.57
2018-04-02T02:05:35.112Z,72.90
2018-04-02T02:08:03.698Z,83.20
2018-04-02T02:10:31.598Z,77.97
2018-04-02T02:12:59.340Z,78.10
2018-04-02T02:15:27.408Z,85.47
2018-04-02T02:17:56.146Z,85.40
2018-04-02T02:20:25.280Z,97.87
2018-04-02T02:22:53.524Z,88.70
2018-04-02T02:25:21.364Z,90.70
2018-04-02T02:27:50.536Z,92.60
2018-04-02T02:30:21.125Z,81.67
2018-04-02T02:32:49.751Z,81.33
2018-04-02T02:35:17.789Z,90.97
2018-04-02T02:37:46.509Z,83.70
2018-04-02T02:40:14.949Z,91.03
2018-04-02T02:42:43.633Z,95.63
2018-04-02T02:45:13.015Z,100.00
2018-04-02T02:47:40.723Z,89.10
2018-04-02T02:50:09.092Z,94.77
2018-04-02T02:52:36.825Z,94.77
2018-04-02T02:55:06.009Z,98.93
2018-04-02T02:57:36.054Z,94.57
2018-04-02T03:00:04.535Z,86.00
2018-04-02T03:02:32.316Z,90.87
2018-04-02T03:05:00.048Z,94.73
2018-04-02T03:07:28.444Z,93.30
2018-04-02T03:09:56.528Z,94.77
2018-04-02T03:12:25.792Z,94.60
2018-04-02T03:14:55.870Z,96.60
2018-04-02T03:17:25.091Z,104.03
2018-04-02T03:19:53.744Z,97.80
2018-04-02T03:22:21.491Z,104.97
2018-04-02T03:24:49.557Z,116.93
2018-04-02T03:27:17.591Z,110.30
2018-04-02T03:29:47.162Z,103.03
2018-04-02T03:32:15.125Z,101.03
2018-04-02T03:34:43.545Z,105.67
2018-04-02T03:37:11.283Z,103.30
2018-04-02T03:39:41.337Z,118.43
2018-04-02T03:42:09.058Z,118.17
2018-04-02T03:44:37.442Z,120.67
2018-04-02T03:47:06.982Z,115.70
2018-04-02T03:49:35.584Z,127.57
2018-04-02T03:52:04.058Z,122.60
2018-04-02T03:54:31.830Z,120.10
2018-04-02T03:57:00.184Z,131.30
2018-04-02T03:59:27.845Z,115.20
2018-04-02T04:01:56.564Z,123.00
2018-04-02T04:04:24.388Z,129.27
2018-04-02T04:06:52.406Z,115.50
2018-04-02T04:09:20.330Z,107.93
2018-04-02T04:11:48.411Z,117.27
2018-04-02T04:14:16.859Z,103.03
2018-04-02T04:16:44.765Z,102.37
2018-04-02T04:19:12.560Z,92.33
2018-04-02T04:21:40.231Z,103.37
2018-04-02T04:24:09.467Z,104.50
2018-04-02T04:26:38.917Z,104.40
2018-04-02T04:29:07.224Z,92.33
2018-04-02T04:31:34.997Z,92.53
2018-04-02T04:34:04.170Z,89.67
2018-04-02T04:36:31.887Z,85.70
2018-04-02T04:39:00.444Z,81.50
2018-04-02T04:41:28.975Z,76.00
2018-04-02T04:43:57.806Z,81.30
2018-04-02T04:46:25.824Z,79.30
2018-04-02T04:48:54.372Z,70.20
2018-04-02T04:51:22.093Z,78.13
2018-04-02T04:53:49.848Z,74.30
2018-04-02T04:56:18.934Z,75.67
2018-04-02T04:58:47.124Z,78.23
2018-04-02T05:01:17.120Z,76.10
2018-04-02T05:03:45.021Z,84.37
2018-04-02T05:06:12.869Z,85.87
2018-04-02T05:08:42.051Z,90.70
2018-04-02T05:11:09.732Z,86.67
2018-04-02T05:13:39.998Z,89.90
2018-04-02T05:16:08.745Z,86.57
2018-04-02T05:18:38.423Z,92.07
2018-04-02T05:21:08.728Z,86.03
2018-04-02T05:23:37.227Z,85.00
2018-04-02T05:26:07.600Z,92.60
2018-04-02T05:28:37.328Z,95.20
2018-04-02T05:31:05.010Z,92.80
2018-04-02T05:33:33.050Z,93.57
2018-04-02T05:36:01.456Z,100.70
2018-04-02T05:38:31.232Z,92.17
2018-04-02T05:40:59.260Z,94.83
2018-04-02T05:43:28.409Z,89.43
2018-04-02T05:45:56.957Z,89.07
2018-04-02T05:48:25.893Z,84.27
2018-04-02T05:50:53.793Z,97.97
2018-04-02T05:53:22.671Z,94.37
2018-04-02T05:55:52.648Z,97.53
2018-04-02T05:58:21.038Z,95.43
2018-04-02T06:00:49.607Z,91.70
2018-04-02T06:03:18.171Z,101.77
2018-04-02T06:05:51.526Z,87.60
2018-04-02T06:08:21.636Z,96.20
2018-04-02T06:10:50.210Z,97.63
2018-04-02T06:13:18.152Z,97.07
2018-04-02T06:15:46.700Z,101.87
2018-04-02T06:18:16.390Z,96.70
2018-04-02T06:20:44.660Z,102.30
2018-04-02T06:23:14.399Z,102.13
2018-04-02T06:25:46.893Z,93.70
2018-04-02T06:28:17.635Z,96.87
2018-04-02T06:30:47.193Z,101.47
2018-04-02T06:33:15.049Z,95.63
2018-04-02T06:35:45.477Z,102.03
2018-04-02T06:38:13.929Z,95.53
2018-04-02T06:40:53.275Z,95.50
2018-04-02T06:43:20.978Z,94.90
2018-04-02T06:45:53.868Z,96.53
2018-04-02T06:48:24.622Z,99.73
2018-04-02T06:50:52.978Z,96.33
2018-04-02T06:53:21.450Z,103.20
2018-04-02T06:55:49.675Z,98.83
2018-04-02T06:58:18.454Z,104.87
2018-04-02T07:00:46.154Z,102.97
2018-04-02T07:03:15.598Z,99.33
2018-04-02T07:05:45.294Z,103.23
2018-04-02T07:08:15.043Z,96.50
2018-04-02T07:10:45.817Z,94.30
2018-04-02T07:13:14.858Z,97.17
2018-04-02T07:15:47.404Z,90.10
2018-04-02T07:18:16.160Z,94.40
2018-04-02T07:20:45.825Z,91.53
2018-04-02T07:23:15.505Z,90.40
2018-04-02T07:25:43.837Z,96.90
2018-04-02T07:28:12.765Z,92.73
2018-04-02T07:30:41.253Z,100.23
2018-04-02T07:33:10.144Z,85.13
2018-04-02T07:35:38.748Z,89.13
2018-04-02T07:38:08.312Z,87.40
2018-04-02T07:40:36.205Z,93.37
2018-04-02T07:43:05.421Z,85.10
2018-04-02T07:45:34.372Z,89.20
2018-04-02T07:48:02.898Z,84.87
2018-04-02T07:50:30.875Z,82.67
2018-04-02T07:52:58.709Z,78.27
2018-04-02T07:55:27.268Z,79.17
2018-04-02T07:57:55.233Z,75.27
2018-04-02T08:00:24.935Z,77.50
2018-04-02T08:02:54.338Z,81.33
2018-04-02T08:05:22.239Z,82.57
2018-04-02T08:07:49.962Z,75.23
2018-04-02T08:10:20.214Z,76.20
2018-04-02T08:12:48.674Z,70.90
2018-04-02T08:15:16.378Z,73.87
2018-04-02T08:17:44.209Z,73.37
2018-04-02T08:20:11.991Z,71.10
2018-04-02T08:22:39.763Z,75.70
2018-04-02T08:25:07.370Z,70.00
2018-04-02T08:27:34.979Z,66.23
2018-04-02T08:30:02.634Z,67.70
2018-04-02T08:32:30.299Z,64.43
2018-04-02T08:34:57.879Z,67.43
2018-04-02T08:37:25.473Z,60.70
2018-04-02T08:39:53.052Z,61.70
2018-04-02T08:42:20.645Z,62.57
2018-04-02T08:44:48.307Z,64.83
2018-04-02T08:47:15.930Z,66.37
2018-04-02T08:49:43.538Z,62.60
2018-04-02T08:52:11.136Z,54.20
2018-04-02T08:54:38.714Z,49.53
2018-04-02T08:57:06.300Z,53.07
2018-04-02T08:59:34.672Z,51.90
2018-04-02T09:02:02.260Z,52.53
2018-04-02T09:04:30.620Z,52.57
2018-04-02T09:06:58.990Z,48.90
2018-04-02T09:09:26.589Z,50.87
2018-04-02T09:11:54.165Z,48.53
2018-04-02T09:14:21.748Z,47.27
2018-04-02T09:16:49.375Z,46.20
2018-04-02T09:19:17.719Z,41.47
2018-04-02T09:21:45.449Z,44.20
2018-04-02T09:24:13.078Z,40.13
2018-04-02T09:26:40.690Z,43.73
2018-04-02T09:29:08.286Z,42.27
2018-04-02T09:31:35.895Z,39.53
2018-04-02T09:34:04.258Z,39.07
2018-04-02T09:36:31.846Z,38.53
2018-04-02T09:38:59.486Z,39.57
2018-04-02T09:41:27.134Z,38.60
2018-04-02T09:43:54.726Z,32.03
2018-04-02T09:46:22.300Z,35.07
2018-04-02T09:48:49.876Z,34.93
2018-04-02T09:51:19.030Z,35.70
2018-04-02T09:53:46.671Z,34.00
2018-04-02T09:56:14.280Z,32.57
2018-04-02T09:58:41.891Z,34.30
2018-04-02T10:01:12.285Z,33.50
2018-04-02T10:03:40.698Z,31.97
2018-04-02T10:06:09.055Z,32.77
2018-04-02T10:08:36.645Z,30.27
2018-04-02T10:11:04.225Z,29.33
2018-04-02T10:13:31.846Z,27.50
2018-04-02T10:15:59.478Z,31.53
2018-04-02T10:18:27.079Z,33.13
2018-04-02T10:20:54.765Z,28.33
2018-04-02T10:23:22.360Z,30.57
2018-04-02T10:25:49.991Z,27.27
2018-04-02T10:28:18.345Z,27.63
2018-04-02T10:30:46.019Z,28.27
2018-04-02T10:33:13.571Z,27.33
2018-04-02T10:35:41.212Z,27.03
2018-04-02T10:38:08.835Z,21.23
2018-04-02T10:40:37.220Z,20.47
2018-04-02T10:43:04.807Z,23.30
2018-04-02T10:45:32.442Z,23.57
2018-04-02T10:48:00.802Z,23.63
2018-04-02T10:50:28.455Z,24.80
2018-04-02T10:52:56.068Z,23.23
2018-04-02T10:55:24.442Z,24.00
2018-04-02T10:57:52.787Z,23.10
2018-04-02T11:00:20.367Z,22.53
2018-04-02T11:02:50.551Z,23.33
2018-04-02T11:05:18.217Z,23.43
2018-04-02T11:07:45.833Z,24.20
2018-04-02T11:10:14.251Z,22.93
2018-04-02T11:12:41.900Z,21.60
2018-04-02T11:15:09.519Z,24.03
2018-04-02T11:17:37.144Z,22.53
2018-04-02T11:20:04.782Z,20.37
2018-04-02T11:22:32.934Z,20.97
2018-04-02T11:25:01.945Z,21.60
2018-04-02T11:27:29.540Z,21.67
2018-04-02T11:29:57.966Z,18.93
2018-04-02T11:32:25.600Z,19.33
2018-04-02T11:34:53.778Z,17.27
2018-04-02T11:37:21.473Z,17.77
2018-04-02T11:39:50.052Z,14.73
2018-04-02T11:42:17.670Z,14.47
2018-04-02T11:44:45.873Z,14.20
2018-04-02T11:47:14.443Z,14.33
2018-04-02T11:49:42.171Z,15.57
2018-04-02T11:52:09.729Z,11.30
2018-04-02T11:54:38.344Z,13.10
2018-04-02T11:57:06.009Z,11.13
2018-04-02T11:59:33.609Z,12.57
2018-04-02T12:02:01.616Z,14.13
2018-04-02T12:04:29.332Z,13.33
2018-04-02T12:06:56.922Z,12.77
2018-04-02T12:09:24.570Z,13.00
2018-04-02T12:11:52.186Z,12.13
2018-04-02T12:14:19.772Z,13.97
2018-04-02T12:16:48.192Z,11.23
2018-04-02T12:19:16.784Z,10.83
2018-04-02T12:21:45.277Z,12.60
2018-04-02T12:24:12.996Z,10.77
2018-04-02T12:26:40.660Z,9.23
2018-04-02T12:29:08.288Z,12.87
2018-04-02T12:31:35.951Z,13.13
2018-04-02T12:34:04.501Z,13.50
2018-04-02T12:36:32.143Z,10.70
2018-04-02T12:38:59.749Z,12.80
2018-04-02T12:41:27.406Z,13.13
2018-04-02T12:43:55.095Z,11.77
2018-04-02T12:46:22.760Z,13.73
2018-04-02T12:48:50.344Z,12.87
2018-04-02T12:51:18.040Z,12.20
2018-04-02T12:53:45.683Z,12.17
2018-04-02T12:56:14.582Z,11.33
2018-04-02T12:58:42.166Z,9.53
2018-04-02T13:01:11.139Z,10.23
2018-04-02T13:03:39.732Z,8.53
2018-04-02T13:06:07.324Z,10.77
2018-04-02T13:08:35.406Z,10.10
2018-04-02T13:11:03.999Z,9.23
2018-04-02T13:13:31.605Z,10.00
2018-04-02T13:15:59.473Z,10.37
2018-04-02T13:18:27.898Z,8.73
2018-04-02T13:20:55.481Z,9.10
2018-04-02T13:23:23.122Z,8.30
2018-04-02T13:25:50.722Z,12.20
2018-04-02T13:28:18.314Z,9.67
2018-04-02T13:30:46.660Z,11.83
2018-04-02T13:33:14.261Z,10.63
2018-04-02T13:35:42.001Z,12.17
2018-04-02T13:38:09.671Z,10.90
2018-04-02T13:40:38.130Z,8.50
2018-04-02T13:43:05.792Z,8.97
2018-04-02T13:45:33.396Z,7.83
2018-04-02T13:48:01.085Z,6.43
2018-04-02T13:50:28.699Z,7.63
2018-04-02T13:52:56.296Z,7.30
2018-04-02T13:55:24.723Z,8.97
2018-04-02T13:57:52.369Z,9.50
2018-04-02T14:00:20.804Z,8.10
2018-04-02T14:02:48.422Z,10.87
2018-04-02T14:05:16.056Z,9.00
2018-04-02T14:07:45.652Z,8.13
2018-04-02T14:10:13.418Z,7.60
2018-04-02T14:12:41.376Z,8.90
2018-04-02T14:15:09.040Z,6.37
2018-04-02T14:17:40.150Z,10.27
2018-04-02T14:20:10.330Z,7.57
2018-04-02T14:22:39.968Z,7.77
2018-04-02T14:25:07.716Z,8.17
2018-04-02T14:27:38.182Z,7.77
2018-04-02T14:30:08.381Z,8.00
2018-04-02T14:32:37.971Z,7.30
2018-04-02T14:37:46.281Z,6.37
2018-04-02T14:40:14.302Z,8.47
2018-04-02T14:42:44.970Z,6.07
2018-04-02T14:45:16.832Z,6.50
2018-04-02T14:47:47.952Z,6.63
2018-04-02T14:50:19.501Z,8.13
2018-04-02T14:52:50.253Z,9.67
2018-04-02T14:55:19.434Z,7.10
2018-04-02T14:57:50.509Z,9.90
2018-04-02T15:00:18.515Z,9.00
2018-04-02T15:02:47.066Z,9.20
2018-04-02T15:05:18.362Z,6.00
2018-04-02T15:10:20.014Z,6.67
2018-04-02T15:12:48.206Z,6.13
2018-04-02T15:15:16.109Z,6.13
2018-04-02T15:17:45.984Z,9.23
2018-04-02T15:20:13.821Z,5.73
2018-04-02T15:22:42.375Z,6.40
2018-04-02T15:25:11.173Z,7.00
2018-04-02T15:27:42.293Z,7.33
2018-04-02T15:30:11.235Z,5.73
2018-04-02T15:32:40.293Z,8.30
2018-04-02T15:35:09.206Z,6.97
2018-04-02T15:37:39.632Z,6.57
2018-04-02T15:40:09.498Z,8.30
2018-04-02T15:42:40.773Z,7.83
2018-04-02T15:45:08.728Z,6.53
2018-04-02T15:47:38.808Z,5.57
2018-04-02T15:50:07.404Z,6.13
2018-04-02T15:52:36.796Z,8.43
2018-04-02T15:55:06.831Z,9.00
2018-04-02T15:57:34.783Z,9.90
2018-04-02T16:00:05.188Z,6.13
2018-04-02T16:02:35.641Z,6.20
2018-04-02T16:05:05.734Z,6.83
2018-04-02T16:07:33.637Z,7.37
2018-04-02T16:10:02.789Z,6.80
2018-04-02T16:12:30.739Z,6.03
2018-04-02T16:14:58.699Z,6.30
2018-04-02T16:17:28.010Z,5.73
2018-04-02T16:19:59.864Z,5.80
2018-04-02T16:22:28.266Z,6.83
2018-04-02T16:24:56.006Z,6.67
2018-04-02T16:27:25.822Z,7.27
2018-04-02T16:29:53.624Z,5.47
2018-04-02T16:32:21.899Z,6.10
2018-04-02T16:34:50.092Z,9.10
2018-04-02T16:37:18.811Z,7.97
2018-04-02T16:39:46.769Z,8.83
2018-04-02T16:42:14.705Z,6.20
2018-04-02T16:44:42.599Z,8.37
2018-04-02T16:47:13.179Z,7.60
2018-04-02T16:49:40.961Z,7.13
2018-04-02T16:52:10.032Z,9.50
2018-04-02T16:54:37.715Z,5.93
2018-04-02T16:57:05.646Z,8.77
2018-04-02T16:59:34.144Z,7.30
2018-04-02T17:02:02.537Z,8.27
2018-04-02T17:04:30.794Z,7.37
2018-04-02T17:06:58.913Z,6.80
2018-04-02T17:09:28.035Z,7.93
2018-04-02T17:11:56.668Z,6.43
2018-04-02T17:14:25.408Z,7.27
2018-04-02T17:16:54.204Z,8.63
2018-04-02T17:19:22.011Z,9.70
2018-04-02T17:21:50.472Z,9.07
2018-04-02T17:24:18.859Z,9.43
2018-04-02T17:26:47.707Z,9.73
2018-04-02T17:29:16.379Z,9.57
2018-04-02T17:31:44.029Z,8.93
2018-04-02T17:34:11.805Z,11.07
2018-04-02T17:36:39.505Z,7.70
2018-04-02T17:39:09.503Z,9.07
2018-04-02T17:41:38.055Z,9.53
2018-04-02T17:44:06.826Z,5.90
2018-04-02T17:46:35.284Z,7.13
2018-04-02T17:49:03.092Z,8.73
2018-04-02T17:51:31.773Z,7.57
2018-04-02T17:53:59.420Z,7.53
2018-04-02T17:56:27.062Z,7.97
2018-04-02T17:58:54.671Z,7.00
2018-04-02T18:01:23.268Z,7.30
2018-04-02T18:03:50.947Z,10.20
2018-04-02T18:06:20.590Z,11.37
2018-04-02T18:08:48.221Z,11.40
2018-04-02T18:11:15.873Z,12.50
2018-04-02T18:13:44.460Z,13.40
2018-04-02T18:16:14.566Z,12.07
2018-04-02T18:18:42.714Z,11.17
2018-04-02T18:21:10.402Z,7.77
2018-04-02T18:23:38.931Z,8.43
2018-04-02T18:28:39.970Z,11.23
2018-04-02T18:31:07.971Z,7.47
2018-04-02T18:33:35.662Z,10.07
2018-04-02T18:36:03.548Z,7.47
2018-04-02T18:38:31.238Z,10.77
2018-04-02T18:40:58.892Z,8.40
2018-04-02T18:43:27.908Z,8.27
2018-04-02T18:45:55.522Z,7.77
2018-04-02T18:48:23.150Z,11.03
2018-04-02T18:50:50.762Z,14.37
2018-04-02T18:53:19.102Z,8.43
2018-04-02T18:55:46.779Z,9.23
2018-04-02T18:58:14.405Z,10.27
2018-04-02T19:00:42.039Z,11.50
2018-04-02T19:03:10.401Z,10.33
2018-04-02T19:05:37.999Z,10.53
2018-04-02T19:08:05.600Z,8.33
2018-04-02T19:10:33.280Z,7.90
2018-04-02T19:13:00.866Z,9.00
2018-04-02T19:15:29.245Z,9.97
2018-04-02T19:17:56.928Z,8.73
2018-04-02T19:20:25.273Z,10.67
2018-04-02T19:22:52.869Z,11.17
2018-04-02T19:25:20.454Z,11.60
2018-04-02T19:27:48.112Z,10.37
2018-04-02T19:30:16.472Z,10.53
2018-04-02T19:32:44.907Z,11.87
2018-04-02T19:35:12.492Z,9.67
2018-04-02T19:37:40.065Z,9.37
2018-04-02T19:40:07.682Z,10.17
2018-04-02T19:42:35.269Z,8.93
2018-04-02T19:45:03.296Z,9.43
2018-04-02T19:47:30.902Z,8.70
2018-04-02T19:49:58.483Z,8.73
2018-04-02T19:52:26.091Z,10.87
2018-04-02T19:54:53.690Z,8.23
2018-04-02T19:57:38.660Z,8.37
2018-04-02T20:00:06.288Z,9.70
2018-04-02T20:02:34.653Z,10.30
2018-04-02T20:05:02.334Z,9.37
2018-04-02T20:07:30.011Z,9.63
2018-04-02T20:09:58.345Z,10.27
2018-04-02T20:12:25.933Z,10.63
2018-04-02T20:14:53.511Z,10.40
2018-04-02T20:17:21.136Z,9.93
2018-04-02T20:19:48.711Z,8.13
2018-04-02T20:22:16.281Z,9.10
2018-04-02T20:24:43.993Z,8.83
2018-04-02T20:27:11.599Z,8.60
2018-04-02T20:29:39.175Z,10.70
2018-04-02T20:32:06.747Z,13.57
2018-04-02T20:34:34.390Z,10.17
2018-04-02T20:37:02.053Z,13.20
2018-04-02T20:39:30.136Z,16.10
2018-04-02T20:41:57.775Z,10.10
2018-04-02T20:44:25.419Z,10.20
2018-04-02T20:46:53.015Z,9.93
2018-04-02T20:49:21.376Z,13.73
2018-04-02T20:51:49.780Z,12.50
2018-04-02T20:54:17.399Z,12.13
2018-04-02T20:56:44.986Z,10.00
2018-04-02T20:59:12.558Z,11.20
2018-04-02T21:01:40.140Z,10.17
2018-04-02T21:04:07.748Z,9.87
2018-04-02T21:06:36.179Z,11.20
2018-04-02T21:09:03.783Z,9.23
2018-04-02T21:11:31.505Z,11.97
2018-04-02T21:13:59.130Z,10.03
2018-04-02T21:16:26.735Z,7.90
2018-04-02T21:18:54.425Z,8.67
2018-04-02T21:21:22.960Z,11.57
2018-04-02T21:23:51.565Z,9.73
2018-04-02T21:26:19.674Z,9.70
2018-04-02T21:28:49.438Z,11.13
2018-04-02T21:31:18.767Z,9.43
2018-04-02T21:33:47.423Z,7.90
2018-04-02T21:36:15.980Z,9.93
2018-04-02T21:38:43.628Z,8.83
2018-04-02T21:41:11.369Z,9.67
2018-04-02T21:43:38.966Z,12.70
2018-04-02T21:46:06.666Z,10.60
2018-04-02T21:48:34.289Z,8.97
2018-04-02T21:51:01.899Z,9.20
2018-04-02T21:53:29.750Z,10.93
2018-04-02T21:55:57.357Z,11.43
2018-04-02T21:58:25.750Z,8.03
2018-04-02T22:00:53.382Z,9.37
2018-04-02T22:03:21.007Z,9.80
2018-04-02T22:05:48.643Z,9.13
2018-04-02T22:08:16.487Z,8.07
2018-04-02T22:10:44.082Z,8.07
2018-04-02T22:13:12.520Z,8.80
2018-04-02T22:15:40.181Z,8.40
2018-04-02T22:18:07.766Z,7.57
2018-04-02T22:20:35.452Z,9.50
2018-04-02T22:23:03.034Z,7.93
2018-04-02T22:25:31.946Z,6.87
2018-04-02T22:27:59.584Z,7.13
2018-04-02T22:30:27.204Z,9.20
2018-04-02T22:32:54.869Z,6.83
2018-04-02T22:35:23.232Z,7.90
2018-04-02T22:37:50.817Z,8.07
2018-04-02T22:40:18.475Z,8.67
2018-04-02T22:42:46.581Z,7.00
2018-04-02T22:45:14.263Z,6.83
2018-04-02T22:47:41.901Z,7.07
2018-04-02T22:50:10.957Z,6.67
2018-04-02T22:52:38.620Z,9.10
2018-04-02T22:55:06.277Z,7.83
2018-04-02T22:57:34.124Z,8.07
2018-04-02T23:00:02.534Z,10.20
2018-04-02T23:02:30.123Z,7.03
2018-04-02T23:04:57.724Z,9.80
2018-04-02T23:07:25.368Z,6.87
2018-04-02T23:09:52.976Z,7.50
2018-04-02T23:12:20.835Z,7.33
2018-04-02T23:14:48.428Z,7.50
2018-04-02T23:17:16.016Z,6.53
2018-04-02T23:19:43.636Z,8.33
2018-04-02T23:22:11.242Z,7.30
2018-04-02T23:24:38.919Z,6.87
2018-04-02T23:27:07.285Z,7.83
2018-04-02T23:29:34.870Z,7.97
2018-04-02T23:32:03.254Z,6.63
2018-04-02T23:34:30.851Z,8.20
2018-04-02T23:36:58.499Z,8.10
2018-04-02T23:39:26.073Z,8.30
2018-04-02T23:41:53.652Z,7.67
2018-04-02T23:44:21.311Z,8.07
2018-04-02T23:46:48.910Z,7.60
2018-04-02T23:49:16.520Z,7.37
2018-04-02T23:51:44.095Z,8.60
2018-04-02T23:54:11.800Z,8.20
2018-04-02T23:56:39.394Z,10.33
2018-04-02T23:59:07.022Z,10.33
